Time;durP1;ratioP1;P1;durP2;ratioP2;P2;SDS_P1;SDS_P2;PMS_P1;PMS_P2;Temp;Humidity;BMP_temperature;BMP_pressure;BME280_temperature;BME280_humidity;BME280_pressure;Samples;Min_cycle;Max_cycle;Signal;HPM_P1;HPM_P2
2023/08/10 00:01:18;;;;;;;4.45;1.98;;;;;;;17.91;100.00;94640.38;5057379;28;20028;-88
2023/08/10 00:03:44;;;;;;;4.13;1.77;;;;;;;17.56;100.00;94630.41;5058838;28;20496;-87
2023/08/10 00:06:09;;;;;;;6.03;2.35;;;;;;;17.58;100.00;94632.75;5058386;28;20033;-88
2023/08/10 00:08:35;;;;;;;5.13;2.25;;;;;;;17.53;100.00;94633.66;5057151;28;20342;-87
2023/08/10 00:11:01;;;;;;;6.00;1.95;;;;;;;17.55;100.00;94628.06;5040455;28;20059;-87
2023/08/10 00:13:45;;;;;;;4.10;1.85;;;;;;;17.65;100.00;94628.59;5038738;28;20029;-87
2023/08/10 00:18:55;;;;;;;7.80;1.90;;;;;;;17.84;100.00;94629.41;5039184;28;20052;-87
2023/08/10 00:21:20;;;;;;;4.32;1.50;;;;;;;17.89;100.00;94627.41;5038719;28;20037;-87
2023/08/10 00:24:23;;;;;;;2.70;1.70;;;;;;;17.80;100.00;94629.25;5038386;28;20033;-88
2023/08/10 00:26:49;;;;;;;2.33;1.45;;;;;;;17.78;100.00;94626.91;5067551;28;20074;-88
2023/08/10 00:29:14;;;;;;;8.25;1.90;;;;;;;17.86;100.00;94628.03;5073206;28;20522;-86
2023/08/10 00:34:42;;;;;;;3.15;1.88;;;;;;;17.81;100.00;94631.59;5061556;28;20039;-87
2023/08/10 00:37:08;;;;;;;7.43;1.80;;;;;;;17.80;100.00;94635.34;5065367;28;20032;-87
2023/08/10 00:39:33;;;;;;;3.70;1.60;;;;;;;17.79;100.00;94633.00;5067984;28;20036;-87
2023/08/10 00:44:43;;;;;;;4.20;1.85;;;;;;;17.55;100.00;94626.19;5039057;28;20041;-87
2023/08/10 00:47:08;;;;;;;5.05;1.70;;;;;;;17.80;100.00;94624.72;5046155;28;20418;-86
2023/08/10 00:49:34;;;;;;;3.83;1.63;;;;;;;17.77;100.00;94627.19;5069418;28;20045;-88
2023/08/10 00:51:59;;;;;;;3.92;1.85;;;;;;;17.58;100.00;94624.81;5079057;28;20044;-88
2023/08/10 00:54:25;;;;;;;3.50;1.67;;;;;;;17.66;100.00;94627.50;5077656;28;20075;-88
2023/08/10 00:57:09;;;;;;;6.07;1.80;;;;;;;17.91;100.00;94627.88;5079079;28;20071;-87
2023/08/10 00:59:54;;;;;;;5.57;1.60;;;;;;;17.99;100.00;94634.28;5077548;28;20035;-88
2023/08/10 01:05:04;;;;;;;8.70;1.80;;;;;;;18.08;100.00;94634.38;5043458;28;20112;-87
2023/08/10 01:07:55;;;;;;;3.65;1.88;;;;;;;18.03;100.00;94626.53;5019964;28;20413;-87
2023/08/10 01:10:38;;;;;;;5.75;2.05;;;;;;;17.57;100.00;94629.31;5036968;28;20068;-87
2023/08/10 01:13:12;;;;;;;4.25;2.00;;;;;;;17.52;100.00;94630.22;5037033;28;20346;-87
2023/08/10 01:15:49;;;;;;;3.95;2.00;;;;;;;17.20;100.00;94626.00;5019300;28;20439;-88
2023/08/10 01:18:16;;;;;;;3.42;1.80;;;;;;;17.30;100.00;94628.41;5036350;28;20033;-87
2023/08/10 01:20:43;;;;;;;4.18;1.65;;;;;;;17.37;100.00;94628.78;5035502;28;20079;-87
2023/08/10 01:23:14;;;;;;;4.47;1.63;;;;;;;17.42;100.00;94627.84;5036056;28;20430;-87
2023/08/10 01:25:42;;;;;;;3.17;1.58;;;;;;;17.29;100.00;94626.84;5037055;28;20037;-87
2023/08/10 01:28:10;;;;;;;3.63;1.90;;;;;;;17.35;100.00;94625.63;5036002;28;20076;-87
2023/08/10 01:30:54;;;;;;;7.47;2.28;;;;;;;17.12;100.00;94634.69;5035581;28;20048;-87
2023/08/10 01:33:19;;;;;;;5.05;1.88;;;;;;;16.92;100.00;94634.03;5036797;28;20025;-88
2023/08/10 01:35:45;;;;;;;5.88;1.70;;;;;;;17.00;100.00;94633.38;5035625;28;20040;-87
2023/08/10 01:38:11;;;;;;;6.38;1.90;;;;;;;17.24;100.00;94633.03;5035597;28;20030;-88
2023/08/10 01:40:37;;;;;;;2.78;1.60;;;;;;;17.37;100.00;94635.91;5035231;28;20351;-88
2023/08/10 01:43:02;;;;;;;4.85;1.80;;;;;;;17.33;100.00;94635.72;5035702;28;20036;-87
2023/08/10 01:45:29;;;;;;;5.15;1.65;;;;;;;17.31;100.00;94640.56;5037066;28;20030;-87
2023/08/10 01:48:03;;;;;;;4.25;1.77;;;;;;;17.41;100.00;94639.50;5035641;28;20690;-87
2023/08/10 01:50:31;;;;;;;5.63;1.83;;;;;;;17.49;100.00;94635.34;5035025;28;20048;-88
2023/08/10 01:56:05;;;;;;;8.52;1.80;;;;;;;17.23;100.00;94647.38;5034797;28;20060;-87
2023/08/10 01:58:31;;;;;;;3.50;1.70;;;;;;;17.28;100.00;94641.16;5036411;28;20043;-87
2023/08/10 02:00:56;;;;;;;7.18;1.88;;;;;;;17.23;100.00;94644.72;5035051;28;20040;-86
2023/08/10 02:03:40;;;;;;;4.00;1.70;;;;;;;17.30;100.00;94641.66;5035165;28;20037;-88
2023/08/10 02:06:06;;;;;;;5.05;1.75;;;;;;;17.46;100.00;94647.34;5035110;28;20026;-86
2023/08/10 02:08:31;;;;;;;4.05;1.90;;;;;;;17.45;100.00;94650.28;5035034;28;20143;-88
2023/08/10 02:10:57;;;;;;;6.85;1.52;;;;;;;17.66;100.00;94640.75;5034882;28;20033;-89
2023/08/10 02:13:22;;;;;;;6.93;2.10;;;;;;;17.85;100.00;94650.31;5034854;28;20029;-87
2023/08/10 02:15:47;;;;;;;5.38;1.85;;;;;;;17.91;100.00;94648.31;5034701;28;20041;-87
2023/08/10 02:18:14;;;;;;;4.28;1.90;;;;;;;17.94;100.00;94650.34;5034912;28;20401;-88
2023/08/10 02:23:43;;;;;;;6.07;1.90;;;;;;;17.67;100.00;94646.81;5054589;28;20410;-87
2023/08/10 02:26:08;;;;;;;3.45;1.80;;;;;;;17.67;100.00;94650.25;5054648;28;20119;-87
2023/08/10 02:28:34;;;;;;;6.72;1.95;;;;;;;17.59;100.00;94645.69;5054119;28;20044;-87
2023/08/10 02:30:59;;;;;;;4.43;1.85;;;;;;;17.24;100.00;94642.88;5054513;28;20562;-87
2023/08/10 02:33:43;;;;;;;4.50;1.92;;;;;;;16.99;100.00;94646.84;5055647;28;20045;-87
2023/08/10 02:36:09;;;;;;;6.60;1.75;;;;;;;17.05;100.00;94643.81;5055746;28;20033;-88
2023/08/10 02:38:34;;;;;;;3.58;1.80;;;;;;;17.00;100.00;94646.59;5054433;28;20060;-86
2023/08/10 02:40:59;;;;;;;5.05;1.90;;;;;;;17.05;100.00;94643.81;5054291;28;20037;-87
2023/08/10 02:43:25;;;;;;;5.90;1.88;;;;;;;17.21;100.00;94640.81;5055660;28;20099;-86
2023/08/10 02:46:09;;;;;;;5.57;1.83;;;;;;;17.29;100.00;94644.63;5055551;28;20342;-87
2023/08/10 02:48:34;;;;;;;6.03;1.50;;;;;;;17.14;100.00;94645.75;5054770;28;20032;-87
2023/08/10 02:50:59;;;;;;;2.95;1.60;;;;;;;17.10;100.00;94641.06;5054404;28;20052;-87
2023/08/10 02:56:09;;;;;;;3.67;1.83;;;;;;;16.98;100.00;94646.09;5056676;28;20083;-87
2023/08/10 02:58:34;;;;;;;4.55;1.60;;;;;;;17.12;100.00;94647.94;5056682;28;20044;-87
2023/08/10 03:01:00;;;;;;;6.57;1.67;;;;;;;16.91;100.00;94641.22;5057188;28;20044;-87
2023/08/10 03:03:26;;;;;;;4.63;1.85;;;;;;;16.85;100.00;94646.94;5055929;28;20039;-87
2023/08/10 03:05:52;;;;;;;5.97;1.85;;;;;;;16.71;100.00;94654.91;5062785;28;20430;-87
2023/08/10 03:08:17;;;;;;;6.03;2.10;;;;;;;16.80;100.00;94656.56;5043317;28;20029;-87
2023/08/10 03:10:42;;;;;;;10.18;1.80;;;;;;;16.53;100.00;94660.84;5040370;28;20044;-87
2023/08/10 03:13:08;;;;;;;5.55;1.80;;;;;;;16.32;100.00;94657.84;5060093;28;20415;-87
2023/08/10 03:15:33;;;;;;;6.35;2.08;;;;;;;16.20;100.00;94666.25;5064771;28;20037;-88
2023/08/10 03:18:01;;;;;;;2.47;1.40;;;;;;;16.14;100.00;94670.09;5061946;28;20442;-87
2023/08/10 03:20:45;;;;;;;5.15;1.83;;;;;;;16.51;100.00;94662.22;5048299;28;20040;-88
2023/08/10 03:23:29;;;;;;;7.72;2.40;;;;;;;16.70;100.00;94672.66;5040744;28;20068;-88
2023/08/10 03:25:54;;;;;;;5.28;1.90;;;;;;;16.85;100.00;94660.16;5040699;28;20048;-88
2023/08/10 03:28:20;;;;;;;7.70;1.83;;;;;;;16.87;100.00;94672.00;5040473;28;20029;-87
2023/08/10 03:30:45;;;;;;;3.95;1.77;;;;;;;16.95;100.00;94670.53;5040680;28;20120;-88
2023/08/10 03:33:11;;;;;;;8.48;1.92;;;;;;;16.79;100.00;94670.06;5039627;28;20336;-88
2023/08/10 03:35:36;;;;;;;6.25;1.65;;;;;;;16.84;100.00;94669.19;5039208;28;20136;-87
2023/08/10 03:41:04;;;;;;;5.30;2.03;;;;;;;16.87;100.00;94668.56;5039282;28;20473;-87
2023/08/10 03:43:48;;;;;;;5.03;1.90;;;;;;;16.90;100.00;94667.97;5040324;28;20063;-88
2023/08/10 03:46:13;;;;;;;3.38;1.85;;;;;;;16.96;100.00;94672.09;5022822;28;20506;-88
2023/08/10 03:48:58;;;;;;;6.32;1.63;;;;;;;16.98;100.00;94658.53;5039657;28;20051;-88
2023/08/10 03:51:23;;;;;;;7.88;2.05;;;;;;;16.89;100.00;94666.41;5040179;28;20029;-87
2023/08/10 03:53:48;;;;;;;8.15;1.92;;;;;;;16.62;100.00;94670.69;5039142;28;20092;-88
2023/08/10 03:56:14;;;;;;;3.08;1.80;;;;;;;16.84;100.00;94669.94;5039963;28;20045;-87
2023/08/10 03:58:39;;;;;;;6.18;1.70;;;;;;;16.86;100.00;94672.31;5061279;28;20039;-88
2023/08/10 04:01:06;;;;;;;4.82;1.67;;;;;;;16.72;100.00;94675.78;5078957;28;20070;-86
2023/08/10 04:03:33;;;;;;;5.03;1.55;;;;;;;16.62;100.00;94673.34;5079970;28;20037;-88
2023/08/10 04:05:59;;;;;;;2.95;1.77;;;;;;;16.51;100.00;94678.06;5080155;28;20721;-88
2023/08/10 04:08:24;;;;;;;5.30;1.90;;;;;;;16.42;100.00;94677.19;5080048;28;20041;-87
2023/08/10 04:10:49;;;;;;;4.00;1.60;;;;;;;16.53;100.00;94686.50;5079608;28;20066;-87
2023/08/10 04:13:15;;;;;;;5.47;1.83;;;;;;;16.35;100.00;94680.25;5079979;28;20430;-88
2023/08/10 04:18:24;;;;;;;;;;;;;;;16.33;100.00;94687.69;5078607;28;20389;-87
2023/08/10 04:20:49;;;;;;;6.38;1.60;;;;;;;16.40;100.00;94694.16;5077979;28;19908;-87
2023/08/10 04:23:15;;;;;;;3.22;1.58;;;;;;;16.56;100.00;94693.06;5078642;28;20044;-88
2023/08/10 04:25:59;;;;;;;5.20;1.65;;;;;;;16.61;100.00;94692.94;5078598;28;20501;-87
2023/08/10 04:28:49;;;;;;;3.97;1.42;;;;;;;16.75;100.00;94698.22;5078158;28;20035;-87
2023/08/10 04:31:17;;;;;;;3.40;1.63;;;;;;;16.62;100.00;94694.50;5062211;28;20043;-87
2023/08/10 04:34:02;;;;;;;5.40;1.95;;;;;;;16.48;100.00;94695.31;5079640;28;20044;-87
2023/08/10 04:36:28;;;;;;;6.63;2.00;;;;;;;16.57;100.00;94702.56;5079501;28;20040;-87
2023/08/10 04:38:54;;;;;;;4.32;1.60;;;;;;;16.75;100.00;94704.28;5078294;28;20082;-87
2023/08/10 04:41:20;;;;;;;4.22;1.90;;;;;;;16.65;100.00;94696.56;5079496;28;20036;-88
2023/08/10 04:43:45;;;;;;;3.78;1.60;;;;;;;16.76;100.00;94697.91;5078320;28;20400;-88
2023/08/10 04:46:11;;;;;;;4.55;1.77;;;;;;;16.86;100.00;94704.06;5079405;28;20064;-87
2023/08/10 04:48:36;;;;;;;4.38;1.75;;;;;;;16.96;100.00;94703.84;5077580;28;20029;-87
2023/08/10 04:51:02;;;;;;;2.42;1.42;;;;;;;17.01;100.00;94700.34;5078095;28;20392;-88
2023/08/10 04:53:27;;;;;;;3.80;1.73;;;;;;;16.86;100.00;94696.91;5079257;28;20071;-87
2023/08/10 04:55:52;;;;;;;3.00;1.50;;;;;;;16.57;100.00;94691.97;5077423;28;20127;-87
2023/08/10 04:58:18;;;;;;;2.67;1.85;;;;;;;16.42;100.00;94688.56;5077569;28;20380;-87
2023/08/10 05:00:43;;;;;;;5.32;1.95;;;;;;;16.32;100.00;94688.78;5078758;28;20028;-87
2023/08/10 05:03:09;;;;;;;10.85;2.00;;;;;;;16.22;100.00;94685.28;5079103;28;20043;-88
2023/08/10 05:05:34;;;;;;;5.53;1.67;;;;;;;16.29;100.00;94695.44;5061103;28;20074;-87
2023/08/10 05:08:22;;;;;;;5.03;2.17;;;;;;;16.61;100.00;94693.75;5060222;28;20086;-87
2023/08/10 05:10:47;;;;;;;4.80;1.70;;;;;;;16.84;100.00;94685.06;5077289;28;20021;-87
2023/08/10 05:13:13;;;;;;;6.40;1.90;;;;;;;16.85;100.00;94689.25;5077458;28;20028;-87
2023/08/10 05:15:38;;;;;;;4.82;1.80;;;;;;;16.79;100.00;94691.25;5067324;28;20017;-88
2023/08/10 05:18:05;;;;;;;2.65;1.73;;;;;;;16.74;100.00;94694.00;5060949;28;20102;-87
2023/08/10 05:23:17;;;;;;;4.45;1.88;;;;;;;17.02;100.00;94686.78;5057446;28;20043;-88
2023/08/10 05:25:42;;;;;;;9.13;2.10;;;;;;;17.10;100.00;94679.97;5057412;28;20453;-88
2023/08/10 05:28:07;;;;;;;3.88;1.60;;;;;;;17.11;100.00;94678.91;5058518;28;20037;-88
2023/08/10 05:30:33;;;;;;;6.32;1.65;;;;;;;17.22;100.00;94690.06;5056120;28;20033;-87
2023/08/10 05:32:59;;;;;;;4.55;1.60;;;;;;;17.36;100.00;94695.25;5059877;28;20025;-87
2023/08/10 05:35:24;;;;;;;4.63;1.40;;;;;;;17.66;100.00;94698.25;5069468;28;20399;-88
2023/08/10 05:37:49;;;;;;;5.50;1.80;;;;;;;17.77;100.00;94702.19;5062824;28;20056;-88
2023/08/10 05:40:34;;;;;;;5.53;1.80;;;;;;;18.01;100.00;94706.38;5057966;28;20442;-87
2023/08/10 05:42:59;;;;;;;4.65;1.95;;;;;;;18.19;100.00;94709.88;5059056;28;20032;-87
2023/08/10 05:45:26;;;;;;;6.35;2.10;;;;;;;18.28;100.00;94709.88;5063782;28;20036;-87
2023/08/10 05:47:51;;;;;;;4.15;1.77;;;;;;;18.30;100.00;94710.38;5068412;28;20338;-87
2023/08/10 05:50:17;;;;;;;3.05;1.50;;;;;;;18.45;100.00;94719.78;5056823;28;20033;-88
2023/08/10 05:52:44;;;;;;;3.58;2.03;;;;;;;18.63;100.00;94715.28;5056679;28;20037;-88
2023/08/10 05:55:10;;;;;;;5.78;2.03;;;;;;;18.74;100.00;94710.47;5056748;28;20036;-87
2023/08/10 05:57:36;;;;;;;3.17;1.83;;;;;;;18.91;100.00;94719.53;5056823;28;20052;-87
2023/08/10 06:00:01;;;;;;;3.92;1.77;;;;;;;19.10;100.00;94729.88;5057857;28;20115;-88
2023/08/10 06:02:27;;;;;;;3.17;1.45;;;;;;;19.26;100.00;94730.19;5057911;28;20029;-88
2023/08/10 06:04:52;;;;;;;3.38;1.90;;;;;;;19.40;100.00;94730.00;5056671;28;20040;-87
2023/08/10 06:07:18;;;;;;;8.10;1.98;;;;;;;19.49;100.00;94728.13;5056691;28;20033;-87
2023/08/10 06:10:03;;;;;;;4.38;1.85;;;;;;;19.62;100.00;94729.03;5039482;28;20021;-88
2023/08/10 06:12:29;;;;;;;3.83;1.58;;;;;;;19.73;100.00;94721.53;5056621;28;20031;-88
2023/08/10 06:15:13;;;;;;;5.15;1.80;;;;;;;19.87;100.00;94728.50;5056197;28;20033;-88
2023/08/10 06:17:38;;;;;;;3.97;1.70;;;;;;;19.95;100.00;94729.63;5056215;28;20078;-87
2023/08/10 06:20:13;;;;;;;6.05;1.73;;;;;;;19.96;100.00;94733.84;5043433;28;20062;-88
2023/08/10 06:22:39;;;;;;;5.07;1.73;;;;;;;20.04;100.00;94733.81;5037575;28;20040;-87
2023/08/10 06:25:05;;;;;;;2.95;1.52;;;;;;;20.14;100.00;94738.00;5037634;28;20060;-87
2023/08/10 06:27:31;;;;;;;2.80;1.40;;;;;;;20.20;100.00;94731.38;5037611;28;20431;-87
2023/08/10 06:32:42;;;;;;;3.50;1.45;;;;;;;20.39;100.00;94737.41;5050207;28;20458;-89
2023/08/10 06:35:08;;;;;;;5.20;2.13;;;;;;;20.28;100.00;94742.31;5051596;28;20028;-89
2023/08/10 06:38:06;;;;;;;6.25;1.83;;;;;;;20.15;100.00;94734.25;5055816;28;20032;-89
2023/08/10 06:40:31;;;;;;;8.88;2.17;;;;;;;20.23;100.00;94737.16;5056501;28;20081;-89
2023/08/10 06:43:16;;;;;;;8.48;1.88;;;;;;;20.08;100.00;94735.84;5055939;28;20032;-88
2023/08/10 06:45:41;;;;;;;6.75;1.70;;;;;;;19.88;100.00;94743.38;5055756;28;20039;-88
2023/08/10 06:48:19;;;;;;;6.15;1.90;;;;;;;20.23;100.00;94745.94;5056007;28;20373;-88
2023/08/10 06:50:44;;;;;;;3.30;1.75;;;;;;;20.25;100.00;94749.06;5056539;28;20046;-87
2023/08/10 06:53:11;;;;;;;5.15;1.90;;;;;;;20.28;100.00;94753.75;5055974;28;20028;-88
2023/08/10 06:55:38;;;;;;;7.00;2.00;;;;;;;20.42;100.00;94761.50;5055535;28;20079;-88
2023/08/10 06:58:04;;;;;;;5.28;2.00;;;;;;;20.49;100.00;94764.44;5055650;28;20021;-87
2023/08/10 07:00:30;;;;;;;5.13;2.10;;;;;;;20.62;100.00;94761.88;5039735;28;20411;-87
2023/08/10 07:03:14;;;;;;;5.18;2.00;;;;;;;20.74;100.00;94763.88;5037091;28;20033;-87
2023/08/10 07:11:51;;;;;;;4.70;2.15;;;;;;;20.94;100.00;94764.22;5035826;28;20465;-88
2023/08/10 07:14:17;;;;;;;5.22;1.92;;;;;;;21.24;100.00;94758.84;5036633;28;20343;-88
2023/08/10 07:19:46;;;;;;;4.35;1.90;;;;;;;21.07;100.00;94768.53;5035293;28;20075;-88
2023/08/10 07:24:55;;;;;;;9.43;2.13;;;;;;;21.46;100.00;94765.72;5035445;28;20529;-87
2023/08/10 07:27:20;;;;;;;4.45;1.98;;;;;;;21.16;100.00;94763.13;5035952;28;20054;-87
2023/08/10 07:29:46;;;;;;;5.55;2.15;;;;;;;21.25;100.00;94765.72;5036776;28;20029;-88
2023/08/10 07:32:13;;;;;;;5.93;1.90;;;;;;;21.60;100.00;94760.13;5035344;28;20079;-88
2023/08/10 07:34:39;;;;;;;5.75;1.73;;;;;;;21.89;100.00;94764.56;5037831;28;20036;-89
2023/08/10 07:37:04;;;;;;;6.70;1.63;;;;;;;22.04;100.00;94767.69;5055545;28;20052;-89
2023/08/10 07:39:30;;;;;;;6.13;2.00;;;;;;;22.00;100.00;94769.47;5055173;28;20025;-89
2023/08/10 07:41:55;;;;;;;6.00;1.65;;;;;;;21.92;100.00;94767.66;5056423;28;20021;-88
2023/08/10 07:47:24;;;;;;;8.18;1.77;;;;;;;22.10;100.00;94773.59;5056368;28;20090;-88
2023/08/10 07:50:08;;;;;;;7.93;2.20;;;;;;;21.64;100.00;94776.22;5055621;28;20052;-89
2023/08/10 07:52:34;;;;;;;6.78;2.03;;;;;;;21.48;100.00;94784.81;5055321;28;20448;-88
2023/08/10 07:55:18;;;;;;;5.70;1.70;;;;;;;21.60;100.00;94782.22;5058538;28;20067;-83
2023/08/10 07:57:43;;;;;;;3.90;1.70;;;;;;;21.92;100.00;94776.47;5059953;28;20033;-83
2023/08/10 08:00:28;;;;;;;5.90;1.70;;;;;;;21.99;100.00;94786.59;5059688;28;20453;-83
2023/08/10 08:05:56;;;;;;;11.27;2.47;;;;;;;22.49;100.00;94784.00;5045670;28;20035;-84
2023/08/10 08:08:21;;;;;;;5.22;2.10;;;;;;;22.55;100.00;94783.44;5041855;28;20339;-84
2023/08/10 08:13:50;;;;;;;6.47;1.90;;;;;;;22.65;100.00;94782.22;5059209;28;20086;-83
2023/08/10 08:19:18;;;;;;;4.80;1.90;;;;;;;22.64;100.00;94782.56;5057958;28;20537;-83
2023/08/10 08:21:46;;;;;;;5.50;1.75;;;;;;;22.80;100.00;94783.44;5059286;28;20100;-83
2023/08/10 08:24:12;;;;;;;3.30;1.50;;;;;;;22.93;100.00;94789.53;5058301;28;20029;-83
2023/08/10 08:26:38;;;;;;;6.43;1.90;;;;;;;22.92;100.00;94793.34;5054920;28;20032;-83
2023/08/10 08:29:03;;;;;;;3.67;1.95;;;;;;;22.96;100.00;94794.25;5048275;28;20041;-83
2023/08/10 08:31:29;;;;;;;7.55;1.92;;;;;;;23.10;100.00;94795.78;5059241;28;20056;-83
2023/08/10 08:33:54;;;;;;;5.18;1.98;;;;;;;23.20;100.00;94797.97;5058969;28;20041;-83
2023/08/10 08:36:20;;;;;;;7.80;2.13;;;;;;;23.32;100.00;94802.56;5059275;28;20037;-83
2023/08/10 08:38:45;;;;;;;8.70;2.05;;;;;;;23.44;100.00;94802.50;5059113;28;20044;-84
2023/08/10 08:41:30;;;;;;;4.45;1.70;;;;;;;23.48;100.00;94805.28;5052229;28;20044;-84
2023/08/10 08:44:14;;;;;;;4.18;1.95;;;;;;;23.36;94.98;94799.97;5058516;28;20033;-83
2023/08/10 08:49:28;;;;;;;3.92;1.48;;;;;;;23.43;96.64;94800.94;5057483;28;20051;-83
2023/08/10 08:51:56;;;;;;;3.47;1.73;;;;;;;23.38;100.00;94803.06;5058974;28;20033;-83
2023/08/10 08:54:21;;;;;;;3.70;1.98;;;;;;;23.54;100.00;94800.47;5057105;28;20082;-83
2023/08/10 08:56:47;;;;;;;3.60;1.70;;;;;;;23.63;100.00;94808.34;5057183;28;20401;-83
2023/08/10 09:04:41;;;;;;;3.83;1.83;;;;;;;23.65;100.00;94820.25;5055984;28;20032;-84
2023/08/10 09:07:06;;;;;;;11.48;1.90;;;;;;;23.72;100.00;94817.78;5054352;28;20080;-84
2023/08/10 09:09:32;;;;;;;20.92;10.27;;;;;;;23.88;100.00;94817.03;5038519;28;20029;-83
2023/08/10 09:11:58;;;;;;;2.78;1.90;;;;;;;23.93;100.00;94802.63;5036978;28;20029;-84
2023/08/10 09:14:23;;;;;;;9.13;1.95;;;;;;;23.78;96.50;94817.53;5037123;28;20037;-84
2023/08/10 09:28:58;;;;;;;4.10;1.90;;;;;;;23.76;88.30;94814.44;5074201;28;20378;-85
2023/08/10 09:31:25;;;;;;;3.67;1.55;;;;;;;23.91;89.55;94818.25;5073657;28;20028;-83
2023/08/10 09:33:59;;;;;;;8.48;1.80;;;;;;;24.01;89.07;94813.19;5072745;28;20119;-84
2023/08/10 09:36:29;;;;;;;3.83;1.73;;;;;;;24.13;90.36;94807.03;5072630;28;20033;-83
2023/08/10 09:38:55;;;;;;;4.13;1.40;;;;;;;24.18;88.13;94808.69;5072453;28;20119;-83
2023/08/10 09:41:22;;;;;;;8.88;1.75;;;;;;;24.16;88.78;94802.09;5072324;28;20030;-84
2023/08/10 09:43:48;;;;;;;3.95;2.00;;;;;;;24.27;93.85;94808.50;5071233;28;20103;-84
2023/08/10 09:46:15;;;;;;;7.80;2.00;;;;;;;24.31;94.01;94811.25;5072489;28;20032;-84
2023/08/10 09:48:42;;;;;;;8.63;2.33;;;;;;;24.22;87.92;94816.78;5072223;28;20033;-84
2023/08/10 09:51:12;;;;;;;7.15;1.73;;;;;;;24.41;91.07;94806.19;5072248;28;20032;-84
2023/08/10 09:53:38;;;;;;;7.30;2.10;;;;;;;24.56;88.75;94806.53;5047004;28;20115;-84
2023/08/10 09:56:07;;;;;;;9.73;2.00;;;;;;;24.65;91.08;94807.09;5036027;28;20087;-83
2023/08/10 09:58:34;;;;;;;3.28;1.83;;;;;;;24.42;87.25;94806.94;5051781;28;20418;-85
2023/08/10 10:00:59;;;;;;;4.22;2.00;;;;;;;24.56;83.41;94806.53;5052112;28;20393;-84
2023/08/10 10:03:29;;;;;;;5.88;2.10;;;;;;;24.65;84.05;94801.75;5052030;28;20111;-84
2023/08/10 10:05:58;;;;;;;8.75;2.47;;;;;;;24.70;94.90;94809.53;5052535;28;20036;-84
2023/08/10 10:08:26;;;;;;;4.88;2.20;;;;;;;24.60;82.25;94804.69;5055610;28;20036;-85
2023/08/10 10:10:59;;;;;;;6.82;1.98;;;;;;;24.57;83.25;94805.41;5071980;28;20349;-85
2023/08/10 10:13:27;;;;;;;4.90;1.98;;;;;;;24.53;84.81;94799.97;5071760;28;20036;-84
2023/08/10 10:15:53;;;;;;;4.45;1.52;;;;;;;24.53;86.04;94809.88;5052305;28;20414;-84
2023/08/10 10:18:19;;;;;;;4.78;1.88;;;;;;;24.61;81.22;94806.25;5051536;28;20039;-85
2023/08/10 10:20:47;;;;;;;4.40;1.60;;;;;;;24.76;85.14;94803.91;5051928;28;20033;-84
2023/08/10 10:23:17;;;;;;;6.38;1.70;;;;;;;24.81;78.18;94806.34;5053175;28;20041;-85
2023/08/10 10:25:56;;;;;;;6.32;1.98;;;;;;;24.71;79.72;94816.47;5051974;28;20358;-85
2023/08/10 10:28:22;;;;;;;3.80;1.60;;;;;;;24.60;79.71;94812.75;5046989;28;20021;-84
2023/08/10 10:31:09;;;;;;;5.07;1.80;;;;;;;24.65;77.13;94814.38;5038580;28;20051;-85
2023/08/10 10:33:35;;;;;;;5.82;2.10;;;;;;;24.76;87.46;94818.13;5038521;28;20040;-84
2023/08/10 10:36:12;;;;;;;6.63;1.90;;;;;;;24.94;83.25;94817.75;5038388;28;20151;-84
2023/08/10 10:38:40;;;;;;;5.95;2.50;;;;;;;24.78;72.82;94817.75;5038352;28;20040;-85
2023/08/10 10:41:09;;;;;;;6.13;1.75;;;;;;;24.94;77.67;94818.50;5038388;28;20469;-84
2023/08/10 10:43:35;;;;;;;5.80;2.00;;;;;;;24.88;75.40;94814.56;5021472;28;20033;-84
2023/08/10 10:46:00;;;;;;;8.95;2.50;;;;;;;24.79;78.67;94806.72;5039343;28;20037;-85
2023/08/10 10:48:34;;;;;;;5.47;1.98;;;;;;;24.91;79.71;94799.69;5043241;28;20115;-85
2023/08/10 10:51:03;;;;;;;5.78;2.10;;;;;;;24.88;75.24;94805.72;5059294;28;20083;-85
2023/08/10 10:53:28;;;;;;;6.20;2.13;;;;;;;24.91;73.24;94802.38;5058144;28;20043;-85
2023/08/10 10:55:54;;;;;;;3.63;2.05;;;;;;;24.70;70.11;94806.88;5059251;28;20107;-84
2023/08/10 10:58:19;;;;;;;7.25;2.08;;;;;;;24.86;72.51;94806.09;5057706;28;20040;-84
2023/08/10 11:00:45;;;;;;;6.05;1.90;;;;;;;24.87;72.01;94807.66;5057737;28;20036;-84
2023/08/10 11:03:21;;;;;;;;;;;;;;;;;;;;;
2023/08/10 11:05:47;;;;;;;5.38;1.92;;;;;;;25.13;76.53;94812.41;5057964;28;20025;-85
2023/08/10 11:08:15;;;;;;;5.70;1.90;;;;;;;25.15;73.03;94811.28;5026077;28;20028;-84
2023/08/10 11:10:43;;;;;;;7.15;1.90;;;;;;;24.99;77.84;94809.44;5037666;28;20083;-84
2023/08/10 11:13:10;;;;;;;3.83;1.60;;;;;;;25.17;70.90;94812.50;5040516;28;20059;-84
2023/08/10 11:15:38;;;;;;;7.10;2.25;;;;;;;25.18;73.63;94805.22;5057276;28;20016;-85
2023/08/10 11:18:11;;;;;;;3.78;2.10;;;;;;;25.62;81.70;94813.06;5057417;28;20059;-84
2023/08/10 11:20:48;;;;;;;4.90;2.10;;;;;;;25.67;70.79;94809.31;5040763;28;20119;-84
2023/08/10 11:23:14;;;;;;;9.15;2.20;;;;;;;25.74;74.97;94806.78;5057428;28;20079;-84
2023/08/10 11:25:50;;;;;;;12.15;2.00;;;;;;;25.74;72.15;94806.78;5057355;28;20037;-84
2023/08/10 11:28:23;;;;;;;13.95;2.50;;;;;;;25.83;69.16;94809.25;5057039;28;20128;-84
2023/08/10 11:30:49;;;;;;;6.65;2.25;;;;;;;25.90;76.80;94816.66;5049241;28;20032;-84
2023/08/10 11:33:15;;;;;;;6.30;2.08;;;;;;;26.13;75.82;94810.56;5039619;28;20029;-85
2023/08/10 11:35:49;;;;;;;14.90;2.30;;;;;;;26.17;70.73;94806.78;5021984;28;20025;-85
2023/08/10 11:38:15;;;;;;;6.18;1.95;;;;;;;26.07;75.53;94808.13;5056895;28;20025;-85
2023/08/10 11:40:40;;;;;;;4.50;1.67;;;;;;;26.02;74.36;94803.06;5056034;28;20047;-86
2023/08/10 11:43:12;;;;;;;9.13;1.95;;;;;;;25.96;72.71;94804.47;5056728;28;20035;-85
2023/08/10 11:45:38;;;;;;;6.63;1.50;;;;;;;25.85;70.86;94798.16;5058262;28;20028;-85
2023/08/10 11:48:11;;;;;;;4.47;1.83;;;;;;;26.04;82.87;94800.00;5040271;28;20021;-87
2023/08/10 11:50:38;;;;;;;4.05;1.75;;;;;;;26.08;77.73;94793.59;5057249;28;20036;-87
2023/08/10 11:53:14;;;;;;;5.47;2.03;;;;;;;25.99;67.11;94793.06;5056839;28;20346;-87
2023/08/10 11:55:44;;;;;;;5.32;1.95;;;;;;;26.07;64.66;94796.63;5058292;28;20063;-87
2023/08/10 11:58:13;;;;;;;4.32;1.95;;;;;;;25.77;62.83;94797.25;5056849;28;20056;-88
2023/08/10 12:00:39;;;;;;;6.25;2.28;;;;;;;25.95;67.82;94795.66;5057033;28;20048;-87
2023/08/10 12:03:19;;;;;;;5.03;1.77;;;;;;;26.13;68.58;94797.13;5056306;28;20029;-88
2023/08/10 12:05:48;;;;;;;3.78;1.50;;;;;;;26.20;65.91;94792.69;5056615;28;20037;-88
2023/08/10 12:08:16;;;;;;;4.13;1.80;;;;;;;26.31;71.14;94787.47;5057816;28;20029;-88
2023/08/10 12:10:49;;;;;;;7.47;1.75;;;;;;;26.34;69.11;94786.75;5057756;28;20025;-87
2023/08/10 12:13:16;;;;;;;5.80;1.88;;;;;;;26.29;66.42;94786.28;5056853;28;20064;-87
2023/08/10 12:15:46;;;;;;;6.93;2.20;;;;;;;26.28;66.05;94792.78;5056465;28;20029;-88
2023/08/10 12:18:14;;;;;;;4.50;1.88;;;;;;;26.34;66.34;94791.38;5056575;28;20029;-87
2023/08/10 12:20:40;;;;;;;3.63;1.60;;;;;;;26.52;69.79;94792.44;5056785;28;20041;-87
2023/08/10 12:23:08;;;;;;;5.95;1.80;;;;;;;26.57;67.59;94790.56;5056556;28;20028;-88
2023/08/10 12:25:33;;;;;;;6.35;2.00;;;;;;;26.56;68.75;94789.00;5056539;28;20112;-87
2023/08/10 12:27:58;;;;;;;4.13;1.80;;;;;;;26.43;70.06;94785.75;5056264;28;20119;-88
2023/08/10 12:30:24;;;;;;;5.88;1.65;;;;;;;26.35;69.27;94788.31;5056252;28;20040;-88
2023/08/10 12:32:49;;;;;;;4.57;1.70;;;;;;;26.27;69.65;94786.66;5056395;28;20035;-87
2023/08/10 12:35:15;;;;;;;5.18;1.98;;;;;;;26.31;73.29;94784.00;5056480;28;20438;-87
2023/08/10 12:37:40;;;;;;;4.30;1.70;;;;;;;26.33;71.34;94782.53;5056237;28;20360;-88
2023/08/10 12:40:08;;;;;;;6.05;2.03;;;;;;;26.26;72.24;94779.72;5039762;28;20036;-87
2023/08/10 12:42:33;;;;;;;4.45;1.90;;;;;;;26.25;71.57;94780.84;5056287;28;20052;-87
2023/08/10 12:44:58;;;;;;;7.03;1.90;;;;;;;26.32;71.05;94783.66;5056231;28;20064;-88
2023/08/10 12:47:24;;;;;;;4.10;2.10;;;;;;;26.50;69.47;94775.09;5039428;28;20028;-87
2023/08/10 12:49:49;;;;;;;4.80;2.00;;;;;;;26.60;71.88;94779.88;5055929;28;20032;-88
2023/08/10 12:52:15;;;;;;;6.32;2.00;;;;;;;26.70;72.13;94778.47;5042708;28;20045;-88